Dakin Peak, Santa Catalina Island Weather observations

Data are for 10 minute period ending at time listed.
 Day   Time   Solar   Ave.   Ave.  Ave.  Vector    Max.   Stn.    Total
  of    of     Rad.   Air    Rel.  Wind   Wind     Wind   Baro.  Precip.
Year   Day            Temp.  Hum.  Speed  Dir.     Gust   Pres.         
2014   (PST)   W/m2    F      %     mph   deg.      mph    mb.     in.  
------------------------------------------------------------------------
 355   18:30    0.0    57   85.5     3     12.6     4.2    999.0   0.00  
 355   18:40    0.0    57   89.8     5    302.4     8.4    999.0   0.00  
 355   18:50    0.0    57   89.5     8    302.5    12.5    999.0   0.00  
 355   19:00    0.0    58   85.0    11    294.4    15.5    999.0   0.00  
 355   19:10    0.0    58   84.7    10    316.8    14.9    999.0   0.00  
 355   19:20    0.0    58   85.3    10    325.0    14.3    999.0   0.00  
 355   19:30    0.0    58   86.0    12    321.0    16.1    999.0   0.00  
 355   19:40    0.0    59   80.6    13    327.8    17.9    999.0   0.00  
 355   19:50    0.0    59   78.1    11    330.2    16.1    999.0   0.00  
 355   20:00    0.0    60   74.9    12    336.8    17.3    999.0   0.00  
 355   20:10    0.0    60   74.8    12    345.3    17.9    999.0   0.00  
 355   20:20    0.0    60   75.2    11    340.5    16.7    999.0   0.00  
 355   20:30    0.0    60   75.4    10    345.6    13.7    999.0   0.00  
 355   20:40    0.0    59   76.6     9    341.7    12.5    999.0   0.00  
 355   20:50    0.0    59   77.3    10    322.1    12.5    999.0   0.00  
 355   21:00    0.0    59   76.6    10    329.6    14.3    999.0   0.00  
 355   21:10    0.0    60   75.2     9    341.2    14.9    999.0   0.00  
 355   21:20    0.0    59   76.2     9    341.1    11.3    999.0   0.00  
 355   21:30    0.0    59   77.5     6    349.3     9.6    999.0   0.00  
 355   21:40    0.0    59   78.2     6    338.5     9.0    999.0   0.00  
 355   21:50    0.0    58   79.0     7    329.0     8.4    999.0   0.00  
 355   22:00    0.0    58   80.1     7    302.5     9.0    999.0   0.00  
 355   22:10    0.0    59   78.8     9    319.6    11.3    999.0   0.00  
 355   22:20    0.0    59   78.3    12    308.6    14.3    999.0   0.00  
 355   22:30    0.0    59   76.6    12    298.2    13.7    999.0   0.00  
 355   22:40    0.0    60   73.7    13    308.3    15.5    999.0   0.00  
 355   22:50    0.0    60   72.3    13    319.8    15.5    999.0   0.00  
 355   23:00    0.0    60   73.8    11    323.6    13.1    999.0   0.00  
 355   23:10    0.0    59   75.0    10    323.1    12.5    999.0   0.00  
 355   23:20    0.0    59   76.2    10    316.6    11.9    999.0   0.00  
 355   23:30    0.0    59   76.2     9    318.8    10.8    999.0   0.00  
 355   23:40    0.0    59   75.3     9    307.7    10.2    999.0   0.00  
 355   23:50    0.0    59   75.3     8    312.5     9.6    999.0   0.00  
 356    0:00    0.0    59   74.9     8    318.9    10.8    999.0   0.00  
 356    0:10    0.0    59   74.3    10    315.5    12.5    999.0   0.00  
 356    0:20    0.0    59   75.7    10    313.8    11.9    999.0   0.00  
 356    0:30    0.0    59   76.2    10    311.0    11.3    999.0   0.00  
 356    0:40    0.0    59   76.0     9    311.0    10.2    999.0   0.00  
 356    0:50    0.0    58   76.4     9    294.6    10.8    999.0   0.00  
 356    1:00    0.0    59   73.0    10    301.5    11.9    999.0   0.00  
 356    1:10    0.0    60   70.2    11    316.0    12.5    999.0   0.00  
 356    1:20    0.0    60   69.3    10    321.4    12.5    999.0   0.00  
 356    1:30    0.0    60   68.6     9    315.7    10.8    999.0   0.00  
 356    1:40    0.0    60   69.6     7    315.7     9.6    999.0   0.00  
 356    1:50    0.0    60   66.5     7    319.0     8.4    999.0   0.00  
 356    2:00    0.0    61   64.9     7    307.3     7.8    999.0   0.00  
 356    2:10    0.0    61   65.4     7    307.3     8.4    999.0   0.00  
 356    2:20    0.0    62   62.3     6    306.3     8.4    999.0   0.00  
 356    2:30    0.0    61   62.9     8    297.7     9.0    999.0   0.00  
 356    2:40    0.0    61   64.7     8    289.4     9.6    999.0   0.00  
 356    2:50    0.0    60   66.4     7    300.2     9.0    999.0   0.00  
 356    3:00    0.0    60   67.8     7    305.5     9.0    999.0   0.00  
 356    3:10    0.0    60   68.9     6    302.7     8.4    999.0   0.00  
 356    3:20    0.0    60   67.2     7    296.1     9.0    999.0   0.00  
 356    3:30    0.0    59   68.6     7    293.1     9.0    999.0   0.00  
 356    3:40    0.0    60   68.0     8    286.1    10.2    999.0   0.00  
 356    3:50    0.0    60   66.8     8    289.0     9.6    999.0   0.00  
 356    4:00    0.0    60   66.2     7    289.1     8.4    999.0   0.00  
 356    4:10    0.0    61   65.2     8    294.6     9.6    999.0   0.00  
 356    4:20    0.0    60   67.7     9    290.4     9.6    999.0   0.00  
 356    4:30    0.0    60   68.0     8    295.5     9.6    999.0   0.00  
 356    4:40    0.0    60   68.4     9    287.6    10.2    999.0   0.00  
 356    4:50    0.0    61   64.2     8    291.4     9.6    999.0   0.00  
 356    5:00    0.0    61   62.6     8    293.3     9.0    999.0   0.00  
 356    5:10    0.0    62   60.0     7    293.1     9.6    999.0   0.00  
 356    5:20    0.0    62   59.6     8    288.2    10.2    999.0   0.00  
 356    5:30    0.0    61   61.3    10    291.3    11.3    999.0   0.00  
 356    5:40    0.0    60   63.1    10    296.4    11.9    999.0   0.00  
 356    5:50    0.0    61   62.0    12    289.9    14.3    999.0   0.00  
 356    6:00    0.0    61   60.7    12    292.5    14.3    999.0   0.00  
 356    6:10    0.0    60   61.4    12    300.9    14.3    999.0   0.00  
 356    6:20    0.0    60   63.2    10    304.8    13.1    999.0   0.00  
 356    6:30    0.0    60   63.4    11    305.3    14.3    999.0   0.00  
 356    6:40    0.0    60   63.5    12    303.1    15.5    999.0   0.00  
 356    6:50    1.0    60   64.9    11    303.3    14.3    999.0   0.00  
 356    7:00    5.0    60   64.2    11    300.3    14.3    999.0   0.00  
 356    7:10   14.0    60   62.9    10    301.7    13.1    999.0   0.00  
 356    7:20   30.0    61   62.6     9    307.1    10.8    999.0   0.00  
 356    7:30   50.0    61   62.3    10    298.5    13.1    999.0   0.00  
 356    7:40   78.0    61   62.3    11    302.9    14.9    999.0   0.00  
 356    7:50  105.0    61   62.6    10    306.7    12.5    999.0   0.00  
 356    8:00  128.0    61   63.1    10    291.2    13.1    999.0   0.00  
 356    8:10  151.0    61   63.1    11    302.7    13.7    999.0   0.00  
 356    8:20  174.0    61   63.7    11    293.7    13.1    999.0   0.00  
 356    8:30  197.0    62   63.5    10    283.1    13.1    999.0   0.00  
 356    8:40  219.0    63   62.0     8    277.0    11.3    999.0   0.00  
 356    8:50  241.0    64   61.8     4    287.4     7.8    999.0   0.00  
 356    9:00  263.0    63   63.3     5    305.3     6.6    999.0   0.00  
 356    9:10  284.0    63   64.1     4    308.4     6.0    999.0   0.00  
 356    9:20  304.0    63   64.0     4    266.0     6.0    999.0   0.00  
 356    9:30  324.0    65   62.6     3    260.2     5.4    999.0   0.00  
 356    9:40  342.0    65   61.3     4    262.3     7.2    999.0   0.00  
 356    9:50  359.0    66   59.6     4    287.7     6.6    999.0   0.00  
 356   10:00  375.0    66   57.9     4    285.0     7.2    999.0   0.00  
 356   10:10  390.0    66   60.1     5    336.6     9.6    999.0   0.00  
 356   10:20  403.0    65   66.3     4    355.9     6.0    999.0   0.00  
 356   10:30  416.0    66   61.2     7    291.6     9.6    999.0   0.00  
 356   10:40  427.0    66   58.7     6    288.9     9.6    999.0   0.00  
 356   10:50  436.0    66   58.2     6    290.9     9.6    999.0   0.00  
 356   11:00  444.0    67   59.1     6    290.2     8.4    999.0   0.00  
 356   11:10  452.0    68   57.4     6    300.6     7.8    999.0   0.00  
 356   11:20  457.0    68   57.1     5    312.1     7.8    999.0   0.00  
 356   11:30  462.0    68   61.3     4    328.5     6.0    999.0   0.00  
 356   11:40  464.0    67   61.9     5    320.1     9.0    999.0   0.00  
 356   11:50  465.0    67   61.6     5    308.6     7.8    999.0   0.00  
 356   12:00  464.0    67   62.2     6    324.1     9.6    999.0   0.00  
 356   12:10  463.0    66   63.6     8    316.4    11.3    999.0   0.00  
 356   12:20  461.0    66   66.4     5    333.7     9.0    999.0   0.00  
 356   12:30  457.0    66   63.6     6    311.2     9.0    999.0   0.00  
 356   12:40  452.0    67   59.8     6    294.6    10.8    999.0   0.00  
 356   12:50  445.0    67   61.5     5    338.1     8.4    999.0   0.00  
 356   13:00  438.0    67   59.8     8    298.8    11.9    999.0   0.00  
 356   13:10  427.0    66   59.2    10    292.5    13.1    999.0   0.00  
 356   13:20  416.0    67   59.2     8    293.9    11.9    999.0   0.00  
 356   13:30  405.0    67   60.3     6    304.6    10.2    999.0   0.00  
 356   13:40  392.0    67   61.3     8    292.1    11.3    999.0   0.00  
 356   13:50  378.0    67   58.5    10    281.8    13.7    999.0   0.00  
 356   14:00  363.0    68   54.2    11    278.8    14.3    999.0   0.00  
 356   14:10  347.0    68   52.7     9    281.4    11.9    999.0   0.00  
 356   14:20  329.0    68   51.2     5    315.9     9.6    999.0   0.00  
 356   14:30  231.0    68   62.3     4     36.8     6.6    999.0   0.00  
 356   14:40   90.0    65   62.8     4      5.4     8.4    999.0   0.00  
 356   14:50   60.0    64   64.4     6    356.6     9.6    999.0   0.00  
 356   15:00  242.0    66   56.8     9    317.5    10.8    999.0   0.00  
 356   15:10  228.0    67   54.2    10    305.4    13.1    999.0   0.00  
 356   15:20  206.0    67   52.5    12    292.2    14.3    999.0   0.00  
 356   15:30  183.0    68   51.0    13    282.5    14.9    999.0   0.00  
 356   15:40  160.0    68   49.3    12    280.9    14.9    999.0   0.00  
 356   15:50  137.0    68   47.5    10    289.7    11.9    999.0   0.00  
 356   16:00  114.0    67   50.3     7    301.9     9.6    999.0   0.00  
 356   16:10   90.0    67   51.8     8    294.0    10.8    999.0   0.00  
 356   16:20   61.0    66   52.3     9    291.2    13.1    999.0   0.00  
 356   16:30   37.0    66   50.5    12    289.9    14.9    999.0   0.00  
 356   16:40   20.0    66   47.7    14    290.7    16.1    999.0   0.00  
 356   16:50    8.0    65   50.8    13    278.7    14.3    999.0   0.00  
 356   17:00    3.0    66   47.6    12    295.4    15.5    999.0   0.00  
 356   17:10    0.0    66   46.5    10    310.7    13.1    999.0   0.00  
 356   17:20    0.0    66   45.2    10    301.7    12.5    999.0   0.00  
 356   17:30    0.0    66   43.7    10    313.9    11.9    999.0   0.00  
 356   17:40    0.0    66   44.1     9    318.4    11.3    999.0   0.00  
 356   17:50    0.0    65   44.2     9    305.7    11.3    999.0   0.00  
 356   18:00    0.0    65   44.8     9    294.7    10.8    999.0   0.00  
 356   18:10    0.0    66   42.0    10    291.5    12.5    999.0   0.00  
 356   18:20    0.0    66   42.0    10    291.6    13.7    999.0   0.00  

Return to Dakin Peak graphs page.


Western Regional Climate Center,wrcc@dri.edu